Time;durP1;ratioP1;P1;durP2;ratioP2;P2;SDS_P1;SDS_P2;PMS_P1;PMS_P2;Temp;Humidity;BMP_temperature;BMP_pressure;BME280_temperature;BME280_humidity;BME280_pressure;Samples;Min_cycle;Max_cycle;Signal;HPM_P1;HPM_P2
2023/09/16 00:00:45;;;;;;;;;;;24.50;56.10;;;;;;5055712;28;20327;-60
2023/09/16 00:03:13;;;;;;;;;;;24.50;56.10;;;;;;5055892;28;19935;-60
2023/09/16 00:05:40;;;;;;;;;;;24.50;56.10;;;;;;5054830;28;19925;-60
2023/09/16 00:08:07;;;;;;;;;;;24.50;56.10;;;;;;5055774;28;20011;-60
2023/09/16 00:10:34;;;;;;;;;;;24.50;56.10;;;;;;5055237;28;19924;-60
2023/09/16 00:13:01;;;;;;;;;;;24.50;56.00;;;;;;5055453;28;19924;-60
2023/09/16 00:15:29;;;;;;;;;;;24.50;55.90;;;;;;5055121;28;19924;-60
2023/09/16 00:17:56;;;;;;;;;;;24.50;55.90;;;;;;5055430;28;20273;-61
2023/09/16 00:20:25;;;;;;;;;;;24.50;55.90;;;;;;5055249;28;19925;-62
2023/09/16 00:22:52;;;;;;;;;;;24.50;55.90;;;;;;5034329;28;19929;-61
2023/09/16 00:25:19;;;;;;;;;;;24.50;55.90;;;;;;5035560;28;20044;-61
2023/09/16 00:27:46;;;;;;;;;;;24.50;55.90;;;;;;5033410;28;20356;-61
2023/09/16 00:30:14;;;;;;;;;;;24.50;55.90;;;;;;5034926;28;20358;-61
2023/09/16 00:32:41;;;;;;;;;;;24.50;55.90;;;;;;5034917;28;19932;-61
2023/09/16 00:35:08;;;;;;;;;;;24.50;55.90;;;;;;5035100;28;19931;-61
2023/09/16 00:37:35;;;;;;;;;;;24.50;55.90;;;;;;5034787;28;19929;-61
2023/09/16 00:40:06;;;;;;;;;;;24.50;55.90;;;;;;5034901;28;19929;-61
2023/09/16 00:42:37;;;;;;;;;;;24.50;55.90;;;;;;5050149;28;19925;-61
2023/09/16 00:45:06;;;;;;;;;;;24.50;56.00;;;;;;5034879;28;19932;-60
2023/09/16 00:47:33;;;;;;;;;;;24.50;55.90;;;;;;5034619;28;19925;-61
2023/09/16 00:50:00;;;;;;;;;;;24.50;55.90;;;;;;5034635;28;19925;-61
2023/09/16 00:52:28;;;;;;;;;;;24.50;55.90;;;;;;5034430;28;20024;-61
2023/09/16 00:54:55;;;;;;;;;;;24.50;55.90;;;;;;5034558;28;19979;-61
2023/09/16 00:57:22;;;;;;;;;;;24.50;55.90;;;;;;5034322;28;19964;-60
2023/09/16 00:59:49;;;;;;;;;;;24.50;55.90;;;;;;5034802;28;19980;-61
2023/09/16 01:02:17;;;;;;;;;;;24.50;56.00;;;;;;5034081;28;19975;-61
2023/09/16 01:04:44;;;;;;;;;;;24.40;55.90;;;;;;5034873;28;20366;-61
2023/09/16 01:07:11;;;;;;;;;;;24.40;55.90;;;;;;5034236;28;19926;-61
2023/09/16 01:09:38;;;;;;;;;;;24.40;56.00;;;;;;5034734;28;19925;-61
2023/09/16 01:12:07;;;;;;;;;;;24.40;56.00;;;;;;5034065;28;19979;-61
2023/09/16 01:14:34;;;;;;;;;;;24.40;56.00;;;;;;5033561;28;19933;-61
2023/09/16 01:17:17;;;;;;;;;;;24.40;56.00;;;;;;5033656;28;19925;-60
2023/09/16 01:19:47;;;;;;;;;;;24.40;56.00;;;;;;5032901;28;19971;-61
2023/09/16 01:22:15;;;;;;;;;;;24.40;55.90;;;;;;5034163;28;19991;-61
2023/09/16 01:24:41;;;;;;;;;;;24.40;55.90;;;;;;5034289;28;19924;-61
2023/09/16 01:27:09;;;;;;;;;;;24.40;55.90;;;;;;5034154;28;19932;-60
2023/09/16 01:29:36;;;;;;;;;;;24.40;55.90;;;;;;5033983;28;19979;-61
2023/09/16 01:32:05;;;;;;;;;;;24.40;55.90;;;;;;5033053;28;19979;-61
2023/09/16 01:34:45;;;;;;;;;;;24.50;55.90;;;;;;5034298;28;19925;-61
2023/09/16 01:37:16;;;;;;;;;;;24.50;55.90;;;;;;5031971;28;19925;-61
2023/09/16 01:39:46;;;;;;;;;;;24.50;55.90;;;;;;5033546;28;19929;-61
2023/09/16 01:42:13;;;;;;;;;;;24.50;55.80;;;;;;5033484;28;19984;-60
2023/09/16 01:44:40;;;;;;;;;;;24.50;55.80;;;;;;5049097;28;19965;-61
2023/09/16 01:47:09;;;;;;;;;;;24.50;55.80;;;;;;5032259;28;20131;-60
2023/09/16 01:49:36;;;;;;;;;;;24.40;55.80;;;;;;5034034;28;19968;-61
2023/09/16 01:52:03;;;;;;;;;;;24.40;55.90;;;;;;5033628;28;20441;-60
2023/09/16 01:54:30;;;;;;;;;;;24.40;55.90;;;;;;5033631;28;20020;-61
2023/09/16 01:56:57;;;;;;;;;;;24.40;55.90;;;;;;5032402;28;19925;-61
2023/09/16 01:59:24;;;;;;;;;;;24.40;55.90;;;;;;5033406;28;20404;-61
2023/09/16 02:01:51;;;;;;;;;;;24.40;55.90;;;;;;5033240;28;19976;-61
2023/09/16 02:04:18;;;;;;;;;;;24.40;55.90;;;;;;5033305;28;19925;-61
2023/09/16 02:06:46;;;;;;;;;;;24.40;55.90;;;;;;5033754;28;20011;-61
2023/09/16 02:09:13;;;;;;;;;;;24.40;55.90;;;;;;5033496;28;19932;-61
2023/09/16 02:11:40;;;;;;;;;;;24.30;55.80;;;;;;5033774;28;19925;-62
2023/09/16 02:14:10;;;;;;;;;;;24.40;55.90;;;;;;5033314;28;19976;-61
2023/09/16 02:16:37;;;;;;;;;;;24.40;55.90;;;;;;5033525;28;19979;-61
2023/09/16 02:19:05;;;;;;;;;;;24.40;55.90;;;;;;5033647;28;19925;-61
2023/09/16 02:21:32;;;;;;;;;;;24.40;56.40;;;;;;5033203;28;19929;-61
2023/09/16 02:24:00;;;;;;;;;;;24.40;55.90;;;;;;5033432;28;19925;-61
2023/09/16 02:26:27;;;;;;;;;;;24.40;55.90;;;;;;5033586;28;19929;-61
2023/09/16 02:28:53;;;;;;;;;;;24.40;55.90;;;;;;5033194;28;19925;-61
2023/09/16 02:31:20;;;;;;;;;;;24.40;55.90;;;;;;5033511;28;20349;-61
2023/09/16 02:33:47;;;;;;;;;;;24.40;56.40;;;;;;5033115;28;19972;-61
2023/09/16 02:36:14;;;;;;;;;;;24.40;55.90;;;;;;5033066;28;19971;-61
2023/09/16 02:38:41;;;;;;;;;;;24.40;55.90;;;;;;5033511;28;20047;-61
2023/09/16 02:41:08;;;;;;;;;;;24.40;55.90;;;;;;5031832;28;20298;-61
2023/09/16 02:43:35;;;;;;;;;;;24.40;55.90;;;;;;5033100;28;19975;-61
2023/09/16 02:46:02;;;;;;;;;;;24.40;55.90;;;;;;5033071;28;20014;-61
2023/09/16 02:48:29;;;;;;;;;;;24.40;55.80;;;;;;5033165;28;20378;-61
2023/09/16 02:50:56;;;;;;;;;;;24.50;55.70;;;;;;5032459;28;19925;-61
2023/09/16 02:53:23;;;;;;;;;;;24.50;55.70;;;;;;5037143;28;19929;-61
2023/09/16 02:55:50;;;;;;;;;;;24.40;55.60;;;;;;5037121;28;20270;-61
2023/09/16 02:58:17;;;;;;;;;;;24.40;55.60;;;;;;5036803;28;20016;-61
2023/09/16 03:00:46;;;;;;;;;;;24.50;55.70;;;;;;5036979;28;20324;-61
2023/09/16 03:03:14;;;;;;;;;;;24.40;55.70;;;;;;5036555;28;20352;-61
2023/09/16 03:05:45;;;;;;;;;;;24.40;55.70;;;;;;5036908;28;20028;-61
2023/09/16 03:08:12;;;;;;;;;;;24.40;55.70;;;;;;5036964;28;20327;-61
2023/09/16 03:10:39;;;;;;;;;;;24.40;55.70;;;;;;5036532;28;20456;-61
2023/09/16 03:13:06;;;;;;;;;;;24.40;55.80;;;;;;5036397;28;20564;-60
2023/09/16 03:15:43;;;;;;;;;;;24.40;55.80;;;;;;5036481;28;20425;-60
2023/09/16 03:18:10;;;;;;;;;;;24.40;55.80;;;;;;5036454;28;20438;-61
2023/09/16 03:20:37;;;;;;;;;;;24.40;55.80;;;;;;5036646;28;19971;-60
2023/09/16 03:23:04;;;;;;;;;;;24.40;55.90;;;;;;5035419;28;19925;-61
2023/09/16 03:25:31;;;;;;;;;;;24.40;55.90;;;;;;5036225;28;19953;-61
2023/09/16 03:27:58;;;;;;;;;;;24.40;55.90;;;;;;5036557;28;19925;-61
2023/09/16 03:30:25;;;;;;;;;;;24.40;55.90;;;;;;5036338;28;19929;-61
2023/09/16 03:32:52;;;;;;;;;;;24.40;55.90;;;;;;5036173;28;19925;-61
2023/09/16 03:35:21;;;;;;;;;;;24.40;55.90;;;;;;5036421;28;19929;-61
2023/09/16 03:37:48;;;;;;;;;;;24.40;55.90;;;;;;5051450;28;19925;-61
2023/09/16 03:40:15;;;;;;;;;;;24.30;55.80;;;;;;5036327;28;19964;-61
2023/09/16 03:42:42;;;;;;;;;;;24.30;55.80;;;;;;5051447;28;19975;-61
2023/09/16 03:45:09;;;;;;;;;;;24.40;55.90;;;;;;5036277;28;20263;-61
2023/09/16 03:47:54;;;;;;;;;;;24.30;55.80;;;;;;5036034;28;19931;-61
2023/09/16 03:50:21;;;;;;;;;;;24.30;55.80;;;;;;5035726;28;19925;-61
2023/09/16 03:52:49;;;;;;;;;;;24.30;55.80;;;;;;5036010;28;20011;-60
2023/09/16 03:55:16;;;;;;;;;;;24.30;55.70;;;;;;5035738;28;20297;-61
2023/09/16 03:57:46;;;;;;;;;;;24.30;55.60;;;;;;5035725;28;20024;-61
2023/09/16 04:00:13;;;;;;;;;;;24.40;55.60;;;;;;5035769;28;19925;-61
2023/09/16 04:02:40;;;;;;;;;;;24.40;55.60;;;;;;5035313;28;19971;-61
2023/09/16 04:05:07;;;;;;;;;;;24.40;55.50;;;;;;5035926;28;20249;-61
2023/09/16 04:07:34;;;;;;;;;;;24.40;55.50;;;;;;5035718;28;19929;-61
2023/09/16 04:10:01;;;;;;;;;;;24.40;55.50;;;;;;5035721;28;19979;-61
2023/09/16 04:12:28;;;;;;;;;;;24.40;55.50;;;;;;5035343;28;19925;-61
2023/09/16 04:14:55;;;;;;;;;;;24.40;55.50;;;;;;5035673;28;20374;-61
2023/09/16 04:17:22;;;;;;;;;;;24.40;55.50;;;;;;5035546;28;20277;-61
2023/09/16 04:19:49;;;;;;;;;;;24.40;55.50;;;;;;5035702;28;19925;-61
2023/09/16 04:22:16;;;;;;;;;;;24.30;55.50;;;;;;5034366;28;19929;-61
2023/09/16 04:24:43;;;;;;;;;;;24.40;55.60;;;;;;5035504;28;19929;-61
2023/09/16 04:27:11;;;;;;;;;;;24.40;55.60;;;;;;5035630;28;19933;-61
2023/09/16 04:29:38;;;;;;;;;;;24.30;55.50;;;;;;5050374;28;19964;-61
2023/09/16 04:32:05;;;;;;;;;;;24.40;55.60;;;;;;5033970;28;19975;-61
2023/09/16 04:34:32;;;;;;;;;;;24.30;55.60;;;;;;5050609;28;19929;-61
2023/09/16 04:36:59;;;;;;;;;;;24.30;55.50;;;;;;5034806;28;19980;-60
2023/09/16 04:39:26;;;;;;;;;;;24.30;55.40;;;;;;5035351;28;19933;-61
2023/09/16 04:41:53;;;;;;;;;;;24.20;55.30;;;;;;5034762;28;20016;-61
2023/09/16 04:44:21;;;;;;;;;;;24.10;55.30;;;;;;5035268;28;19931;-61
2023/09/16 04:46:48;;;;;;;;;;;23.90;55.60;;;;;;5034828;28;19929;-61
2023/09/16 04:49:15;;;;;;;;;;;23.70;55.70;;;;;;5034241;28;19929;-61
2023/09/16 04:51:42;;;;;;;;;;;23.50;54.70;;;;;;5033659;28;20008;-61
2023/09/16 04:54:09;;;;;;;;;;;23.20;53.00;;;;;;5034550;28;19931;-61
2023/09/16 04:56:36;;;;;;;;;;;22.90;51.50;;;;;;5034727;28;19925;-61
2023/09/16 04:59:03;;;;;;;;;;;22.70;51.10;;;;;;5034480;28;19979;-60
2023/09/16 05:01:30;;;;;;;;;;;22.40;51.30;;;;;;5034789;28;19925;-60
2023/09/16 05:03:58;;;;;;;;;;;22.00;50.60;;;;;;5033429;28;19932;-60
2023/09/16 05:06:25;;;;;;;;;;;21.70;49.50;;;;;;5034506;28;19925;-61
2023/09/16 05:08:55;;;;;;;;;;;21.40;50.50;;;;;;5033300;28;20011;-60
2023/09/16 05:11:22;;;;;;;;;;;21.10;51.50;;;;;;5034383;28;19972;-61
2023/09/16 05:13:51;;;;;;;;;;;20.90;51.30;;;;;;5033857;28;19931;-60
2023/09/16 05:16:18;;;;;;;;;;;20.70;52.40;;;;;;5032966;28;20382;-61
2023/09/16 05:18:45;;;;;;;;;;;20.50;52.60;;;;;;5034280;28;19925;-60
2023/09/16 05:21:12;;;;;;;;;;;20.20;52.20;;;;;;5034461;28;20021;-61
2023/09/16 05:23:39;;;;;;;;;;;20.10;52.50;;;;;;5034252;28;19925;-60
2023/09/16 05:26:06;;;;;;;;;;;19.90;51.50;;;;;;5034187;28;19959;-60
2023/09/16 05:28:33;;;;;;;;;;;19.80;54.30;;;;;;5034009;28;19925;-60
2023/09/16 05:31:00;;;;;;;;;;;19.70;52.90;;;;;;5033856;28;19925;-60
2023/09/16 05:33:27;;;;;;;;;;;19.60;51.60;;;;;;5049207;28;19925;-60
2023/09/16 05:35:55;;;;;;;;;;;19.50;51.70;;;;;;5034170;28;19972;-60
2023/09/16 05:38:22;;;;;;;;;;;19.40;54.70;;;;;;5034188;28;19947;-61
2023/09/16 05:40:49;;;;;;;;;;;19.30;53.50;;;;;;5049067;28;19955;-60
2023/09/16 05:43:16;;;;;;;;;;;19.20;52.50;;;;;;5033929;28;20346;-61
2023/09/16 05:45:48;;;;;;;;;;;19.20;53.80;;;;;;5033859;28;19972;-60
2023/09/16 05:48:16;;;;;;;;;;;19.10;54.70;;;;;;5034087;28;19932;-61
2023/09/16 05:50:43;;;;;;;;;;;19.00;52.30;;;;;;5033663;28;20345;-65
2023/09/16 05:53:10;;;;;;;;;;;19.00;53.00;;;;;;5033564;28;19976;-61
2023/09/16 05:55:40;;;;;;;;;;;18.90;53.40;;;;;;5033319;28;19925;-61
2023/09/16 05:58:11;;;;;;;;;;;18.90;53.20;;;;;;5033504;28;19971;-60
2023/09/16 06:00:38;;;;;;;;;;;18.80;52.60;;;;;;5033345;28;19928;-60
2023/09/16 06:03:05;;;;;;;;;;;18.80;53.30;;;;;;5033423;28;19932;-60
2023/09/16 06:05:33;;;;;;;;;;;18.80;53.40;;;;;;5033854;28;20332;-61
2023/09/16 06:08:00;;;;;;;;;;;18.80;52.60;;;;;;5049038;28;19929;-60
2023/09/16 06:10:28;;;;;;;;;;;18.70;53.90;;;;;;5048543;28;20024;-61
2023/09/16 06:12:55;;;;;;;;;;;18.70;53.60;;;;;;5053110;28;20442;-60
2023/09/16 06:15:23;;;;;;;;;;;18.70;52.80;;;;;;5051031;28;20016;-61
2023/09/16 06:17:49;;;;;;;;;;;18.60;53.40;;;;;;5057827;28;19970;-60
2023/09/16 06:20:16;;;;;;;;;;;18.60;53.90;;;;;;5063706;28;19978;-60
2023/09/16 06:22:43;;;;;;;;;;;18.60;53.10;;;;;;5057474;28;19947;-60
2023/09/16 06:25:10;;;;;;;;;;;18.60;53.40;;;;;;5072200;28;19951;-60
2023/09/16 06:27:37;;;;;;;;;;;18.60;53.80;;;;;;5077119;28;20412;-60
2023/09/16 06:30:05;;;;;;;;;;;18.50;53.60;;;;;;5077130;28;19998;-60
2023/09/16 06:32:32;;;;;;;;;;;18.50;52.70;;;;;;5076958;28;19931;-60
2023/09/16 06:34:59;;;;;;;;;;;18.50;53.80;;;;;;5077288;28;19971;-60
2023/09/16 06:37:26;;;;;;;;;;;18.40;54.20;;;;;;5075452;28;20007;-61
2023/09/16 06:39:53;;;;;;;;;;;18.40;54.60;;;;;;5076876;28;19970;-60
2023/09/16 06:42:20;;;;;;;;;;;18.40;54.10;;;;;;5092507;28;19947;-60
2023/09/16 06:44:54;;;;;;;;;;;18.40;55.20;;;;;;5075418;28;19924;-60
2023/09/16 06:47:27;;;;;;;;;;;18.40;54.50;;;;;;5076950;28;20301;-60
2023/09/16 06:49:55;;;;;;;;;;;18.40;55.10;;;;;;5076728;28;19924;-60
2023/09/16 06:52:22;;;;;;;;;;;18.30;56.90;;;;;;5076524;28;19928;-60
2023/09/16 06:54:49;;;;;;;;;;;18.30;56.90;;;;;;5059493;28;19971;-60
2023/09/16 06:57:16;;;;;;;;;;;18.20;55.00;;;;;;5056549;28;20304;-60
2023/09/16 06:59:47;;;;;;;;;;;18.20;58.00;;;;;;5075376;28;19925;-60
2023/09/16 07:02:14;;;;;;;;;;;18.20;58.90;;;;;;5076484;28;19932;-60
2023/09/16 07:04:42;;;;;;;;;;;18.10;58.60;;;;;;5076292;28;20396;-60
2023/09/16 07:07:09;;;;;;;;;;;18.10;58.80;;;;;;5066488;28;19994;-60
2023/09/16 07:09:36;;;;;;;;;;;18.10;59.00;;;;;;5073751;28;19933;-60
2023/09/16 07:12:04;;;;;;;;;;;18.10;58.50;;;;;;5076500;28;20042;-60
2023/09/16 07:14:31;;;;;;;;;;;18.10;58.80;;;;;;5076047;28;19978;-61
2023/09/16 07:16:58;;;;;;;;;;;18.10;59.60;;;;;;5075946;28;20038;-60
2023/09/16 07:19:25;;;;;;;;;;;18.20;59.70;;;;;;5076586;28;19936;-60
2023/09/16 07:21:52;;;;;;;;;;;18.10;59.70;;;;;;5067797;28;19984;-60
2023/09/16 07:24:19;;;;;;;;;;;18.10;60.20;;;;;;5069053;28;20351;-63
2023/09/16 07:26:46;;;;;;;;;;;18.20;60.30;;;;;;5076001;28;19982;-60
2023/09/16 07:29:13;;;;;;;;;;;18.20;59.80;;;;;;5076248;28;20007;-60
2023/09/16 07:31:40;;;;;;;;;;;18.20;59.90;;;;;;5057984;28;19929;-60
2023/09/16 07:34:07;;;;;;;;;;;18.20;60.20;;;;;;5063140;28;19924;-60
2023/09/16 07:36:34;;;;;;;;;;;18.20;60.00;;;;;;5055665;28;19947;-61
2023/09/16 07:39:01;;;;;;;;;;;18.20;60.60;;;;;;5065807;28;19924;-60
2023/09/16 07:41:28;;;;;;;;;;;18.20;60.20;;;;;;5063754;28;19971;-60
2023/09/16 07:43:55;;;;;;;;;;;18.20;60.30;;;;;;5065189;28;19925;-60
2023/09/16 07:46:22;;;;;;;;;;;18.30;60.40;;;;;;5075624;28;19963;-60
2023/09/16 07:48:49;;;;;;;;;;;18.30;60.20;;;;;;5075610;28;20368;-60
2023/09/16 07:51:17;;;;;;;;;;;18.30;60.20;;;;;;5075779;28;19935;-60
2023/09/16 07:53:43;;;;;;;;;;;18.30;59.70;;;;;;5075430;28;20434;-60
2023/09/16 07:56:10;;;;;;;;;;;18.30;60.20;;;;;;5075562;28;19924;-60
2023/09/16 07:58:37;;;;;;;;;;;18.30;59.90;;;;;;5068775;28;19924;-61
2023/09/16 08:01:04;;;;;;;;;;;18.30;59.80;;;;;;5091191;28;20426;-60
2023/09/16 08:03:31;;;;;;;;;;;18.30;60.30;;;;;;5069632;28;20296;-60
2023/09/16 08:05:59;;;;;;;;;;;18.30;59.60;;;;;;5055580;28;19925;-60
2023/09/16 08:08:26;;;;;;;;;;;18.30;59.90;;;;;;5059505;28;20417;-60
2023/09/16 08:10:53;;;;;;;;;;;18.30;60.40;;;;;;5075423;28;20023;-60
2023/09/16 08:13:20;;;;;;;;;;;18.40;59.80;;;;;;5075533;28;20343;-60
2023/09/16 08:15:47;;;;;;;;;;;18.40;59.60;;;;;;5075388;28;20339;-60
2023/09/16 08:18:14;;;;;;;;;;;18.30;60.20;;;;;;5075224;28;19924;-60
2023/09/16 08:20:41;;;;;;;;;;;18.40;60.50;;;;;;5074831;28;19995;-60
2023/09/16 08:23:10;;;;;;;;;;;18.30;60.80;;;;;;5075008;28;19972;-60
2023/09/16 08:25:38;;;;;;;;;;;18.40;61.00;;;;;;5074825;28;20380;-60
2023/09/16 08:28:05;;;;;;;;;;;18.40;61.20;;;;;;5074867;28;19979;-60
2023/09/16 08:30:32;;;;;;;;;;;18.40;61.10;;;;;;5055335;28;19948;-60
2023/09/16 08:32:58;;;;;;;;;;;18.40;60.90;;;;;;5054267;28;20364;-60
2023/09/16 08:35:26;;;;;;;;;;;18.40;61.60;;;;;;5074178;28;19924;-60
2023/09/16 08:37:54;;;;;;;;;;;18.40;61.10;;;;;;5074599;28;19978;-60
2023/09/16 08:40:21;;;;;;;;;;;18.40;61.20;;;;;;5074174;28;19924;-60
2023/09/16 08:42:54;;;;;;;;;;;18.40;62.30;;;;;;5075046;28;19925;-60
2023/09/16 08:45:26;;;;;;;;;;;18.50;61.70;;;;;;5074425;28;20368;-60
2023/09/16 08:47:55;;;;;;;;;;;18.50;61.60;;;;;;5074886;28;19978;-60
2023/09/16 08:50:22;;;;;;;;;;;18.50;61.50;;;;;;5073769;28;19978;-60
2023/09/16 08:52:50;;;;;;;;;;;18.50;61.40;;;;;;5074380;28;19972;-60
2023/09/16 08:55:18;;;;;;;;;;;18.60;61.40;;;;;;5074352;28;20022;-60
2023/09/16 08:57:57;;;;;;;;;;;18.60;61.30;;;;;;5074493;28;19925;-60
2023/09/16 09:00:24;;;;;;;;;;;18.60;61.80;;;;;;5089870;28;19925;-60
2023/09/16 09:02:51;;;;;;;;;;;18.70;61.60;;;;;;5073966;28;19928;-60
2023/09/16 09:05:19;;;;;;;;;;;18.70;61.20;;;;;;5073728;28;19978;-60
2023/09/16 09:07:47;;;;;;;;;;;18.80;61.10;;;;;;5072771;28;19924;-60
2023/09/16 09:10:14;;;;;;;;;;;18.80;61.00;;;;;;5074483;28;20011;-60
2023/09/16 09:12:41;;;;;;;;;;;18.80;61.30;;;;;;5074452;28;19970;-60
2023/09/16 09:15:10;;;;;;;;;;;18.80;61.10;;;;;;5074347;28;20035;-60
2023/09/16 09:17:38;;;;;;;;;;;18.90;61.40;;;;;;5074001;28;20023;-60
2023/09/16 09:20:07;;;;;;;;;;;18.90;61.30;;;;;;5063860;28;20365;-60
2023/09/16 09:22:36;;;;;;;;;;;18.90;61.20;;;;;;5053842;28;19924;-60
2023/09/16 09:25:03;;;;;;;;;;;18.90;61.40;;;;;;5053926;28;19924;-60
2023/09/16 09:27:30;;;;;;;;;;;18.90;61.60;;;;;;5053959;28;19925;-60
2023/09/16 09:29:57;;;;;;;;;;;18.90;61.50;;;;;;5053768;28;20023;-60
2023/09/16 09:32:31;;;;;;;;;;;18.90;61.60;;;;;;5053771;28;19931;-60
2023/09/16 09:35:04;;;;;;;;;;;18.90;60.90;;;;;;5053853;28;19924;-60
2023/09/16 09:37:31;;;;;;;;;;;19.00;61.50;;;;;;5053615;28;19976;-60
2023/09/16 09:40:08;;;;;;;;;;;19.00;61.60;;;;;;5053762;28;20304;-61
2023/09/16 09:42:43;;;;;;;;;;;19.00;61.30;;;;;;5053050;28;19925;-60
2023/09/16 09:45:10;;;;;;;;;;;19.00;60.40;;;;;;5068460;28;19932;-60
2023/09/16 09:47:38;;;;;;;;;;;19.10;59.90;;;;;;5053686;28;20083;-60
2023/09/16 09:50:07;;;;;;;;;;;19.10;59.50;;;;;;5053938;28;20284;-60
2023/09/16 09:52:37;;;;;;;;;;;19.20;59.50;;;;;;5053707;28;19925;-60
2023/09/16 09:55:04;;;;;;;;;;;19.20;60.00;;;;;;5053552;28;19975;-60
2023/09/16 09:57:32;;;;;;;;;;;19.10;60.10;;;;;;5053551;28;19924;-60
2023/09/16 09:59:59;;;;;;;;;;;19.10;60.20;;;;;;5053450;28;19983;-60
2023/09/16 10:02:27;;;;;;;;;;;19.10;60.20;;;;;;5053222;28;20016;-60
2023/09/16 10:04:57;;;;;;;;;;;19.10;60.60;;;;;;5053350;28;19925;-60
2023/09/16 10:07:27;;;;;;;;;;;19.10;59.60;;;;;;5053142;28;19929;-60
2023/09/16 10:09:54;;;;;;;;;;;19.00;60.30;;;;;;5053789;28;19945;-60
2023/09/16 10:12:21;;;;;;;;;;;19.00;60.10;;;;;;5053462;28;20010;-60
2023/09/16 10:14:49;;;;;;;;;;;19.00;59.90;;;;;;5053481;28;19925;-60
2023/09/16 10:17:16;;;;;;;;;;;19.00;60.00;;;;;;5053567;28;19971;-60
2023/09/16 10:19:43;;;;;;;;;;;18.90;60.70;;;;;;5053162;28;19925;-60
2023/09/16 10:22:11;;;;;;;;;;;19.00;60.70;;;;;;5053243;28;20042;-60
2023/09/16 10:24:40;;;;;;;;;;;18.90;60.60;;;;;;5053325;28;19925;-60
2023/09/16 10:27:13;;;;;;;;;;;18.90;60.40;;;;;;5068349;28;19932;-61
2023/09/16 10:29:42;;;;;;;;;;;18.90;60.00;;;;;;5053394;28;20019;-60
2023/09/16 10:32:09;;;;;;;;;;;18.90;60.10;;;;;;5053402;28;19929;-61
2023/09/16 10:34:37;;;;;;;;;;;18.90;60.30;;;;;;5053036;28;19955;-60
2023/09/16 10:37:04;;;;;;;;;;;18.90;60.10;;;;;;5052919;28;19988;-61
2023/09/16 10:39:33;;;;;;;;;;;18.90;60.40;;;;;;5053135;28;20391;-60
2023/09/16 10:42:01;;;;;;;;;;;19.00;59.90;;;;;;5053286;28;20015;-60
2023/09/16 10:44:28;;;;;;;;;;;19.00;59.90;;;;;;5053170;28;19925;-60
2023/09/16 10:46:56;;;;;;;;;;;19.00;59.60;;;;;;5053386;28;20028;-60
2023/09/16 10:49:23;;;;;;;;;;;19.00;60.40;;;;;;5053292;28;19948;-60
2023/09/16 10:51:51;;;;;;;;;;;18.90;60.10;;;;;;5053399;28;19970;-60
2023/09/16 10:54:24;;;;;;;;;;;18.90;60.50;;;;;;5053201;28;19928;-61
2023/09/16 10:56:56;;;;;;;;;;;18.90;60.10;;;;;;5052831;28;19925;-60
2023/09/16 10:59:25;;;;;;;;;;;19.00;59.80;;;;;;5053028;28;19925;-60
2023/09/16 11:01:57;;;;;;;;;;;19.00;59.80;;;;;;5053062;28;19925;-60
2023/09/16 11:04:25;;;;;;;;;;;19.00;59.60;;;;;;5053113;28;19970;-60
2023/09/16 11:06:56;;;;;;;;;;;19.00;59.80;;;;;;5053219;28;19932;-60
2023/09/16 11:09:24;;;;;;;;;;;18.90;60.00;;;;;;5053100;28;19932;-61
2023/09/16 11:11:51;;;;;;;;;;;19.00;59.60;;;;;;5052636;28;20381;-60
2023/09/16 11:14:22;;;;;;;;;;;18.90;59.40;;;;;;5056478;28;19984;-61
2023/09/16 11:16:50;;;;;;;;;;;19.00;59.50;;;;;;5056588;28;19925;-60
2023/09/16 11:19:21;;;;;;;;;;;18.90;59.70;;;;;;5056066;28;19929;-61
2023/09/16 11:21:48;;;;;;;;;;;18.90;59.20;;;;;;5056412;28;19939;-60
2023/09/16 11:24:16;;;;;;;;;;;18.90;60.00;;;;;;5056256;28;19925;-60
2023/09/16 11:26:46;;;;;;;;;;;18.90;59.70;;;;;;5056230;28;19925;-60
2023/09/16 11:29:17;;;;;;;;;;;18.90;59.70;;;;;;5056609;28;19987;-61
2023/09/16 11:31:44;;;;;;;;;;;19.00;59.60;;;;;;5056380;28;20001;-60
2023/09/16 11:34:12;;;;;;;;;;;18.90;60.00;;;;;;5056581;28;20293;-61
2023/09/16 11:36:42;;;;;;;;;;;18.90;60.20;;;;;;5056067;28;19947;-60
2023/09/16 11:39:15;;;;;;;;;;;19.00;60.40;;;;;;5055612;28;19925;-60
2023/09/16 11:41:42;;;;;;;;;;;19.00;60.50;;;;;;5055961;28;19983;-60
2023/09/16 11:44:10;;;;;;;;;;;19.00;60.70;;;;;;5056286;28;19925;-60
2023/09/16 11:46:37;;;;;;;;;;;19.00;60.60;;;;;;5056139;28;19971;-61
2023/09/16 11:49:05;;;;;;;;;;;19.00;60.40;;;;;;5055950;28;19932;-60
2023/09/16 11:51:34;;;;;;;;;;;19.00;60.60;;;;;;5055916;28;20054;-60
2023/09/16 11:54:02;;;;;;;;;;;19.00;60.70;;;;;;5055870;28;19994;-60
2023/09/16 11:56:29;;;;;;;;;;;19.10;60.90;;;;;;5056043;28;19958;-60
2023/09/16 11:59:00;;;;;;;;;;;19.10;61.00;;;;;;5054382;28;19925;-61
2023/09/16 12:01:31;;;;;;;;;;;19.10;60.70;;;;;;5055678;28;20015;-61
2023/09/16 12:03:59;;;;;;;;;;;19.10;61.00;;;;;;5071205;28;19986;-60
2023/09/16 12:06:26;;;;;;;;;;;19.20;61.30;;;;;;5055534;28;19925;-61
2023/09/16 12:08:55;;;;;;;;;;;19.20;60.80;;;;;;5055663;28;19968;-61
2023/09/16 12:11:23;;;;;;;;;;;19.30;60.80;;;;;;5055813;28;19925;-61
2023/09/16 12:13:50;;;;;;;;;;;19.30;61.10;;;;;;5070575;28;19925;-61
2023/09/16 12:16:16;;;;;;;;;;;19.40;60.90;;;;;;5055237;28;19925;-60
2023/09/16 12:18:44;;;;;;;;;;;19.40;61.00;;;;;;5055265;28;20024;-60
2023/09/16 12:21:12;;;;;;;;;;;19.40;61.10;;;;;;5054774;28;19968;-60
2023/09/16 12:23:42;;;;;;;;;;;19.40;61.00;;;;;;5053899;28;19928;-61
2023/09/16 12:26:10;;;;;;;;;;;19.50;60.80;;;;;;5055087;28;20393;-61
2023/09/16 12:28:37;;;;;;;;;;;19.50;60.90;;;;;;5054999;28;19925;-61
2023/09/16 12:31:08;;;;;;;;;;;19.50;60.80;;;;;;5055173;28;19951;-60
2023/09/16 12:33:48;;;;;;;;;;;19.50;60.50;;;;;;5055115;28;19931;-61
2023/09/16 12:36:16;;;;;;;;;;;19.50;60.70;;;;;;5054904;28;19924;-61
2023/09/16 12:38:43;;;;;;;;;;;19.60;60.70;;;;;;5054946;28;19925;-61
2023/09/16 12:41:12;;;;;;;;;;;19.60;60.70;;;;;;5054695;28;20384;-60
2023/09/16 12:43:40;;;;;;;;;;;19.60;60.90;;;;;;5054015;28;19983;-60
2023/09/16 12:46:08;;;;;;;;;;;19.70;60.80;;;;;;5055050;28;19951;-60
2023/09/16 12:48:36;;;;;;;;;;;19.60;60.40;;;;;;5055117;28;20337;-60
2023/09/16 12:51:03;;;;;;;;;;;19.70;60.80;;;;;;5054994;28;19928;-60
2023/09/16 12:53:30;;;;;;;;;;;19.70;60.70;;;;;;5055034;28;19925;-61
2023/09/16 12:56:00;;;;;;;;;;;19.70;60.90;;;;;;5054627;28;20345;-60
2023/09/16 12:58:27;;;;;;;;;;;19.70;60.80;;;;;;5054462;28;19925;-60
2023/09/16 13:00:54;;;;;;;;;;;19.70;60.60;;;;;;5054776;28;19924;-60
2023/09/16 13:03:23;;;;;;;;;;;19.80;60.40;;;;;;5054496;28;20301;-60
2023/09/16 13:05:51;;;;;;;;;;;19.80;60.50;;;;;;5054156;28;19924;-60
2023/09/16 13:08:22;;;;;;;;;;;19.80;60.20;;;;;;5054409;28;20365;-60
2023/09/16 13:10:50;;;;;;;;;;;19.80;60.30;;;;;;5054691;28;19971;-60
2023/09/16 13:13:17;;;;;;;;;;;19.80;60.30;;;;;;5054301;28;19925;-60
2023/09/16 13:15:45;;;;;;;;;;;19.80;59.90;;;;;;5054577;28;19931;-60
2023/09/16 13:18:12;;;;;;;;;;;19.90;60.50;;;;;;5054428;28;19968;-60
2023/09/16 13:20:42;;;;;;;;;;;19.80;59.80;;;;;;5054132;28;20019;-60
2023/09/16 13:23:17;;;;;;;;;;;19.90;60.40;;;;;;5054610;28;20045;-60
2023/09/16 13:25:45;;;;;;;;;;;19.90;60.50;;;;;;5054224;28;19978;-60
2023/09/16 13:28:15;;;;;;;;;;;19.90;60.20;;;;;;5054233;28;19964;-60
2023/09/16 13:30:43;;;;;;;;;;;19.90;60.20;;;;;;5053952;28;19952;-59
2023/09/16 13:33:10;;;;;;;;;;;19.90;60.50;;;;;;5054005;28;20429;-60
2023/09/16 13:35:39;;;;;;;;;;;19.90;60.60;;;;;;5053440;28;20112;-60
2023/09/16 13:38:07;;;;;;;;;;;19.90;60.30;;;;;;5054291;28;19979;-60
2023/09/16 13:40:34;;;;;;;;;;;19.90;60.40;;;;;;5053334;28;19979;-60
2023/09/16 13:43:01;;;;;;;;;;;19.90;60.30;;;;;;5053822;28;19955;-60
2023/09/16 13:45:29;;;;;;;;;;;19.90;60.10;;;;;;5036287;28;19936;-60
2023/09/16 13:48:15;;;;;;;;;;;19.90;60.00;;;;;;5053520;28;20395;-60
2023/09/16 13:50:43;;;;;;;;;;;19.90;60.30;;;;;;5053966;28;19971;-60
2023/09/16 13:53:15;;;;;;;;;;;19.90;60.20;;;;;;5054076;28;19925;-60
2023/09/16 13:55:43;;;;;;;;;;;19.90;60.20;;;;;;5053506;28;19925;-60
2023/09/16 13:58:11;;;;;;;;;;;19.90;60.30;;;;;;5053774;28;19970;-60
2023/09/16 14:00:38;;;;;;;;;;;19.90;60.90;;;;;;5053731;28;20260;-60
2023/09/16 14:03:05;;;;;;;;;;;19.90;60.20;;;;;;5053336;28;19925;-60
2023/09/16 14:05:32;;;;;;;;;;;20.00;61.60;;;;;;5053752;28;19994;-60
2023/09/16 14:07:59;;;;;;;;;;;20.10;69.10;;;;;;5053919;28;19979;-60
2023/09/16 14:10:28;;;;;;;;;;;20.40;73.10;;;;;;5053614;28;19933;-60
2023/09/16 14:12:59;;;;;;;;;;;20.70;75.00;;;;;;5053834;28;19925;-60
2023/09/16 14:15:27;;;;;;;;;;;20.90;75.40;;;;;;5053492;28;19931;-60
2023/09/16 14:17:54;;;;;;;;;;;21.20;75.50;;;;;;5053484;28;19932;-60
2023/09/16 14:20:22;;;;;;;;;;;21.50;75.10;;;;;;5053492;28;19972;-60